LDLO/LSZ METAR and TAF weather

Enter ICAO airport designator
Station Type Date Time Source
LDLO METAR 2020/01/19 19:00 UTC NOAA

LDLO 191900Z 03015KT CAVOK 08/M01 Q1030


Station Type Date Time Source
LDLO Decoded METAR 2020/01/19 19:00 UTC NOAA

Losinj Island, Croatia (LDLO) 44-33-57N 014-23-35E
Jan 19, 2020 - 02:00 PM EST / 2020.01.19 1900 UTC
Wind: from the NNE (030 degrees) at 17 MPH (15 KT):0
Visibility: greater than 7 mile(s):0
Temperature: 46 F (8 C)
Dew Point: 30 F (-1 C)
Relative Humidity: 52%
Pressure (altimeter): 30.42 in. Hg (1030 hPa)
ob: LDLO 191900Z 03015KT CAVOK 08/M01 Q1030
cycle: 19

Station Type Date Time Source
LDLO TAF 2020/01/19 21:42 UTC NOAA

TAF
AMD TAF
AMD LDLO 192138Z 1921/2018 CNL

Example: see airport list